METAR Data
IDs: Format: Raw Decoded Include TAF

Data at: 0225 UTC 24 Jun 2021

METAR for:KVTA (Newark/Heath Arpt, OH, US)
Text:KVTA 240154Z AUTO 12003KT 10SM CLR 21/12 A3019 RMK AO2 SLP219 T02060117
Temperature: 20.6°C ( 69°F)
Dewpoint: 11.7°C ( 53°F) [RH = 57%]
Pressure (altimeter):30.19 inches Hg (1022.4 mb) [Sea level pressure: 1021.9 mb]
Winds:from the ESE (120 degrees) at 3 MPH (3 knots; 1.5 m/s)
Visibility:10 or more sm (16+ km)
Ceiling:at least 12,000 feet AGL
Clouds:sky clear below 12,000 feet AGL
QC Flag:automated observation with no human augmentation